createdAt,value
2024-03-29T09:06:04.192Z,61.6
2024-03-29T09:07:02.988Z,62.6
2024-03-29T09:08:03.102Z,61
2024-03-29T09:09:03.247Z,62.1
2024-03-29T09:10:03.339Z,60.9
2024-03-29T09:11:03.482Z,61.4
2024-03-29T09:12:03.598Z,59.9
2024-03-29T09:13:03.708Z,59.8
2024-03-29T09:14:06.075Z,59.8
2024-03-29T09:15:01.275Z,60.5
2024-03-29T09:16:01.401Z,61
2024-03-29T09:17:03.196Z,60
2024-03-29T09:18:03.264Z,59.4
2024-03-29T09:19:03.385Z,60
2024-03-29T09:20:01.874Z,60.9
2024-03-29T09:21:01.997Z,58.5
2024-03-29T09:22:02.074Z,61.1
2024-03-29T09:23:03.863Z,58.6
2024-03-29T09:24:01.311Z,58.6
2024-03-29T09:25:01.431Z,59.2
2024-03-29T09:26:01.534Z,57.8
2024-03-29T09:27:01.656Z,58.9
2024-03-29T09:28:03.463Z,59
2024-03-29T09:29:01.914Z,59.5
2024-03-29T09:30:02.016Z,58.6
2024-03-29T09:31:02.080Z,59
2024-03-29T09:32:03.998Z,57.7
2024-03-29T09:33:01.357Z,59.1
2024-03-29T09:34:01.492Z,58.6
2024-03-29T09:35:03.248Z,58.9
2024-03-29T09:36:03.344Z,60.3
2024-03-29T09:37:03.464Z,60.8
2024-03-29T09:38:01.917Z,61
2024-03-29T09:39:02.043Z,58.5
2024-03-29T09:40:02.134Z,59.8
2024-03-29T09:41:02.916Z,60.3
2024-03-29T09:42:03.020Z,60.7
2024-03-29T09:43:06.196Z,60
2024-03-29T09:44:03.215Z,60.2
2024-03-29T09:45:01.696Z,61.8
2024-03-29T09:46:01.834Z,59.6
2024-03-29T09:47:01.931Z,60
2024-03-29T09:48:01.992Z,59.5
2024-03-29T09:49:03.734Z,57.9
2024-03-29T09:50:02.239Z,57.2
2024-03-29T09:51:03.017Z,58.5
2024-03-29T09:52:03.213Z,58.9
2024-03-29T09:53:03.187Z,58.9
2024-03-29T09:54:01.659Z,57.3
2024-03-29T09:55:03.416Z,59.5
2024-03-29T09:56:03.542Z,59.6
2024-03-29T09:57:01.993Z,58.4
2024-03-29T09:58:02.107Z,61
2024-03-29T09:59:03.866Z,58.1
2024-03-29T10:00:02.963Z,59.8
2024-03-29T10:01:03.011Z,60.9
2024-03-29T10:02:01.516Z,58.9
2024-03-29T10:03:03.278Z,59.5
2024-03-29T10:04:03.366Z,59.3
2024-03-29T10:05:01.823Z,60
2024-03-29T10:06:03.567Z,58
2024-03-29T10:07:03.696Z,56.8
2024-03-29T10:08:02.190Z,58.5
2024-03-29T10:09:03.894Z,58.7
2024-03-29T10:10:02.989Z,56.8
2024-03-29T10:11:01.428Z,58.3
2024-03-29T10:12:03.196Z,57.2
2024-03-29T10:13:03.265Z,56.7
2024-03-29T10:14:03.428Z,55.7
2024-03-29T10:15:03.498Z,57.3
2024-03-29T10:16:03.618Z,58.1
2024-03-29T10:17:02.071Z,58.6
2024-03-29T10:18:03.817Z,59.1
2024-03-29T10:19:03.880Z,58
2024-03-29T10:20:01.441Z,57.8
2024-03-29T10:21:03.090Z,58.4
2024-03-29T10:22:01.627Z,58
2024-03-29T10:23:03.330Z,57.8
2024-03-29T10:24:01.756Z,56.5
2024-03-29T10:25:01.896Z,57.8
2024-03-29T10:26:01.965Z,58.3
2024-03-29T10:27:02.063Z,58.9
2024-03-29T10:28:02.204Z,57.4
2024-03-29T10:29:02.955Z,57.7
2024-03-29T10:30:01.451Z,58.3
2024-03-29T10:31:01.532Z,57
2024-03-29T10:32:01.585Z,58.7
2024-03-29T10:33:03.796Z,59.4
2024-03-29T10:34:03.430Z,58.9
2024-03-29T10:35:01.962Z,58.3
2024-03-29T10:36:02.032Z,58.5
2024-03-29T10:37:02.144Z,57.4
2024-03-29T10:38:02.210Z,59.5
2024-03-29T10:39:02.921Z,57.2
2024-03-29T10:40:03.103Z,57.3
2024-03-29T10:41:03.238Z,56.4
2024-03-29T10:42:03.293Z,56
2024-03-29T10:43:03.397Z,57.1
2024-03-29T10:44:01.854Z,57.2
2024-03-29T10:45:03.606Z,57.2
2024-03-29T10:46:02.073Z,56.5
2024-03-29T10:47:03.873Z,58.1
2024-03-29T10:48:02.887Z,58.7
2024-03-29T10:49:03.043Z,59.2
2024-03-29T10:50:03.596Z,60.2
2024-03-29T10:51:01.559Z,59.7
2024-03-29T10:52:03.328Z,57.6
2024-03-29T10:53:01.778Z,56.7
2024-03-29T10:54:01.875Z,58.5
2024-03-29T10:55:01.966Z,58
2024-03-29T10:56:02.066Z,57
2024-03-29T10:57:03.815Z,57
2024-03-29T10:58:02.919Z,57.7
2024-03-29T10:59:03.017Z,56.4
2024-03-29T11:00:01.496Z,57.6
2024-03-29T11:01:03.205Z,56.7
2024-03-29T11:02:03.354Z,56.7
2024-03-29T11:03:03.428Z,56.9
2024-03-29T11:04:01.899Z,57.2
2024-03-29T11:05:01.993Z,57.4
2024-03-29T11:06:03.745Z,59.7
2024-03-29T11:07:03.903Z,59
2024-03-29T11:08:02.941Z,58.1
2024-03-29T11:09:01.386Z,57.3
2024-03-29T11:10:01.539Z,56.8
2024-03-29T11:11:01.604Z,58.5
2024-03-29T11:12:01.716Z,57.6
2024-03-29T11:13:01.823Z,57.4
2024-03-29T11:14:03.558Z,58
2024-03-29T11:15:02.084Z,57.5
2024-03-29T11:16:02.192Z,57.5
2024-03-29T11:17:02.253Z,57.1
2024-03-29T11:18:01.390Z,57.9
2024-03-29T11:19:03.064Z,58.4
2024-03-29T11:20:01.545Z,59.6
2024-03-29T11:21:03.303Z,60.4
2024-03-29T11:22:03.494Z,59.2
2024-03-29T11:23:01.899Z,59.7
2024-03-29T11:24:02.004Z,59
2024-03-29T11:25:02.081Z,59.2
2024-03-29T11:26:02.189Z,59.4
2024-03-29T11:27:01.332Z,59
2024-03-29T11:28:03.055Z,60
2024-03-29T11:29:01.544Z,60.1
2024-03-29T11:30:03.272Z,60.4
2024-03-29T11:31:01.755Z,60.4
2024-03-29T11:32:03.507Z,61.4
2024-03-29T11:33:01.946Z,61.2
2024-03-29T11:34:02.037Z,61.9
2024-03-29T11:35:03.790Z,61.8
2024-03-29T11:36:01.303Z,61.3
2024-03-29T11:37:03.036Z,63
2024-03-29T11:38:01.493Z,63.8
2024-03-29T11:39:01.587Z,64.5
2024-03-29T11:40:01.685Z,64.4
2024-03-29T11:41:01.792Z,65.4
2024-03-29T11:42:03.548Z,66.5
2024-03-29T11:43:03.618Z,65.6
2024-03-29T11:44:03.747Z,65.2
2024-03-29T11:45:02.236Z,66.7
2024-03-29T11:46:02.920Z,66
2024-03-29T11:47:01.419Z,67.5
2024-03-29T11:48:03.224Z,68.8
2024-03-29T11:49:01.630Z,68
2024-03-29T11:50:01.731Z,69.6
2024-03-29T11:51:01.847Z,70
2024-03-29T11:52:01.934Z,70.2
2024-03-29T11:53:03.704Z,70.4
2024-03-29T11:54:02.157Z,70.3
2024-03-29T11:55:03.919Z,70.4
2024-03-29T11:56:01.371Z,71.3
2024-03-29T11:57:03.118Z,70.5
2024-03-29T11:58:01.549Z,71
2024-03-29T11:59:03.313Z,71.1
2024-03-29T12:00:01.774Z,71.4
2024-03-29T12:01:03.518Z,72.1
2024-03-29T12:02:03.618Z,72.3
2024-03-29T12:03:02.090Z,73.4
2024-03-29T12:04:03.872Z,70.7
2024-03-29T12:05:02.925Z,73.2
2024-03-29T12:06:01.403Z,73.4
2024-03-29T12:07:01.482Z,73.2
2024-03-29T12:08:01.576Z,73.4
2024-03-29T12:09:01.736Z,72.6
2024-03-29T12:10:01.830Z,73.3
2024-03-29T12:11:01.932Z,73.8
2024-03-29T12:12:02.019Z,74
2024-03-29T12:13:02.110Z,72.1
2024-03-29T12:14:03.931Z,72.5
2024-03-29T12:15:03.043Z,72.3
2024-03-29T12:16:01.452Z,72.1
2024-03-29T12:17:03.224Z,73.4
2024-03-29T12:18:01.650Z,71.9
2024-03-29T12:19:03.385Z,72.3
2024-03-29T12:20:03.517Z,71.9
2024-03-29T12:21:01.961Z,71.7
2024-03-29T12:22:02.228Z,71.5
2024-03-29T12:23:03.800Z,70.9
2024-03-29T12:24:02.940Z,71.3
2024-03-29T12:25:03.063Z,70.6
2024-03-29T12:26:01.518Z,70.9
2024-03-29T12:27:01.587Z,72.6
2024-03-29T12:28:03.357Z,70.8
2024-03-29T12:29:03.440Z,69.6
2024-03-29T12:30:01.916Z,70.1
2024-03-29T12:31:02.035Z,71.2
2024-03-29T12:32:02.124Z,70.8
2024-03-29T12:33:02.222Z,71
2024-03-29T12:34:04.883Z,71.4
2024-03-29T12:35:01.434Z,70.8
2024-03-29T12:36:01.594Z,69.8
2024-03-29T12:37:03.280Z,70.2
2024-03-29T12:38:03.354Z,71
2024-03-29T12:39:01.836Z,71
2024-03-29T12:40:03.637Z,71.3
2024-03-29T12:41:02.090Z,70
2024-03-29T12:42:02.158Z,70
2024-03-29T12:43:02.917Z,70.3
2024-03-29T12:44:01.383Z,70.5
2024-03-29T12:45:03.161Z,70.5
2024-03-29T12:46:03.201Z,69.9
2024-03-29T12:47:01.677Z,69.9
2024-03-29T12:48:03.456Z,70.2
2024-03-29T12:49:03.565Z,69.7
2024-03-29T12:50:01.969Z,70.2
2024-03-29T12:51:02.124Z,69.4
2024-03-29T12:52:02.187Z,69.9
2024-03-29T12:53:01.519Z,70.3
2024-03-29T12:54:01.375Z,70.6
2024-03-29T12:55:01.607Z,70.8
2024-03-29T12:56:01.726Z,70.2
2024-03-29T12:57:01.839Z,69.8
2024-03-29T12:58:01.883Z,70.5
2024-03-29T12:59:01.934Z,70.8
2024-03-29T13:00:02.153Z,69.8
2024-03-29T13:01:03.812Z,71
2024-03-29T13:02:02.954Z,70.7
2024-03-29T13:03:01.354Z,69.8
2024-03-29T13:04:01.464Z,69.7
2024-03-29T13:05:01.594Z,70.4
2024-03-29T13:06:03.316Z,71.6
2024-03-29T13:07:03.471Z,71.4
2024-03-29T13:08:03.534Z,70
2024-03-29T13:09:03.617Z,69.9
2024-03-29T13:10:03.755Z,69.5
2024-03-29T13:11:03.870Z,70.5
2024-03-29T13:12:01.364Z,70.9
2024-03-29T13:13:01.469Z,70.8
2024-03-29T13:14:01.523Z,71.1
2024-03-29T13:15:01.724Z,70.6
2024-03-29T13:16:01.759Z,70.6
2024-03-29T13:17:01.922Z,70.4
2024-03-29T13:18:03.599Z,69.7
2024-03-29T13:19:03.711Z,70.3
2024-03-29T13:20:03.828Z,69.9
2024-03-29T13:21:01.300Z,69.9
2024-03-29T13:22:01.429Z,71
2024-03-29T13:23:03.169Z,68.6
2024-03-29T13:24:01.615Z,67.8
2024-03-29T13:25:03.362Z,68.4
2024-03-29T13:26:03.476Z,67.9
2024-03-29T13:27:01.941Z,68.3
2024-03-29T13:28:02.034Z,66.7
2024-03-29T13:29:02.127Z,67.2
2024-03-29T13:30:02.307Z,65.7
2024-03-29T13:31:01.337Z,65.6
2024-03-29T13:32:03.124Z,65.1
2024-03-29T13:33:01.554Z,64.2
2024-03-29T13:34:01.672Z,63.7
2024-03-29T13:35:03.400Z,64.7
2024-03-29T13:36:03.496Z,67.4
2024-03-29T13:37:01.980Z,65.2
2024-03-29T13:38:03.760Z,66
2024-03-29T13:39:02.400Z,66.2
2024-03-29T13:40:01.315Z,66.3
2024-03-29T13:41:01.381Z,65.8
2024-03-29T13:42:01.495Z,64.6
2024-03-29T13:43:01.629Z,65.8
2024-03-29T13:44:03.379Z,65.5
2024-03-29T13:45:01.812Z,66.7
2024-03-29T13:46:01.968Z,66.5
2024-03-29T13:47:03.718Z,65.6
2024-03-29T13:48:02.151Z,64.3
2024-03-29T13:49:02.200Z,64.4
2024-03-29T13:50:03.073Z,64.3
2024-03-29T13:51:01.466Z,63.8
2024-03-29T13:52:03.251Z,64.6
2024-03-29T13:53:03.333Z,65
2024-03-29T13:54:03.431Z,65.6
2024-03-29T13:55:03.551Z,65.5
2024-03-29T13:56:03.626Z,65.7
2024-03-29T13:57:02.141Z,65.6
2024-03-29T13:58:03.864Z,65.6
2024-03-29T13:59:01.305Z,66.9
2024-03-29T14:00:01.397Z,66.7
2024-03-29T14:01:03.137Z,66.2
2024-03-29T14:02:01.634Z,66.2
2024-03-29T14:03:03.380Z,66.4
2024-03-29T14:04:01.810Z,65.9
2024-03-29T14:05:01.941Z,66.7
2024-03-29T14:06:03.692Z,67.1
2024-03-29T14:07:02.129Z,67.2
2024-03-29T14:08:03.898Z,69.1
2024-03-29T14:09:02.952Z,68.5
2024-03-29T14:10:03.067Z,67.6
2024-03-29T14:11:01.562Z,67.1
2024-03-29T14:12:03.318Z,67.7
2024-03-29T14:13:03.386Z,67.4
2024-03-29T14:14:01.874Z,67.7
2024-03-29T14:15:03.635Z,67.9
2024-03-29T14:16:03.791Z,67.5
2024-03-29T14:17:02.216Z,67.2
2024-03-29T14:18:03.007Z,68.3
2024-03-29T14:19:03.035Z,68
2024-03-29T14:20:01.490Z,68
2024-03-29T14:21:03.236Z,67.4
2024-03-29T14:22:01.709Z,67.5
2024-03-29T14:23:01.791Z,67.7
2024-03-29T14:24:01.908Z,67.1
2024-03-29T14:25:02.022Z,67
2024-03-29T14:26:02.124Z,67.6
2024-03-29T14:27:04.713Z,68
2024-03-29T14:28:01.313Z,67.2
2024-03-29T14:29:01.407Z,67.2
2024-03-29T14:30:03.146Z,66.2
2024-03-29T14:31:01.631Z,67.1
2024-03-29T14:32:01.703Z,66.7
2024-03-29T14:33:04.844Z,66.7
2024-03-29T14:34:03.569Z,66.9
2024-03-29T14:35:03.764Z,66.8
2024-03-29T14:36:02.152Z,66.9
2024-03-29T14:37:03.962Z,67.5
2024-03-29T14:38:03.013Z,67.4
2024-03-29T14:39:03.134Z,68.2
2024-03-29T14:40:01.610Z,67.7
2024-03-29T14:41:01.680Z,67
2024-03-29T14:42:02.184Z,66.9
2024-03-29T14:43:01.897Z,67.2
2024-03-29T14:44:01.976Z,67.2
2024-03-29T14:45:02.193Z,67.6
2024-03-29T14:46:02.274Z,68.4
2024-03-29T14:47:01.312Z,66.7
2024-03-29T14:48:03.051Z,68.5
2024-03-29T14:49:01.508Z,66.7
2024-03-29T14:50:03.224Z,66.4
2024-03-29T14:51:03.358Z,66
2024-03-29T14:52:01.843Z,66.1
2024-03-29T14:53:03.567Z,65.5
2024-03-29T14:54:02.027Z,65.9
2024-03-29T14:55:03.762Z,66.2
2024-03-29T14:56:13.396Z,66.2
2024-03-29T14:57:02.970Z,66
2024-03-29T14:58:03.085Z,66.8
2024-03-29T14:59:01.545Z,66.8
2024-03-29T15:00:03.308Z,66.7
2024-03-29T15:01:03.450Z,66.7
2024-03-29T15:02:01.848Z,67.1
2024-03-29T15:03:01.965Z,67
2024-03-29T15:04:02.050Z,68
2024-03-29T15:05:02.160Z,67.6
2024-03-29T15:06:02.231Z,67.2
2024-03-29T15:07:01.355Z,67.6
2024-03-29T15:08:01.502Z,66.9
2024-03-29T15:09:03.188Z,67.2
2024-03-29T15:10:01.684Z,68
2024-03-29T15:11:03.365Z,67.1
2024-03-29T15:12:01.853Z,67
2024-03-29T15:14:03.707Z,67.2
2024-03-29T15:15:02.253Z,66.2
2024-03-29T15:17:01.378Z,66
2024-03-29T15:18:01.499Z,66.2
2024-03-29T15:19:01.559Z,66.8
2024-03-29T15:20:01.669Z,68.2
2024-03-29T15:21:01.804Z,67.5
2024-03-29T15:22:01.891Z,66.9
2024-03-29T15:23:01.963Z,67.3
2024-03-29T15:24:03.758Z,67.5
2024-03-29T15:25:04.244Z,68.1
2024-03-29T15:26:02.937Z,68.8
2024-03-29T15:27:01.404Z,68.1
2024-03-29T15:28:03.158Z,67.8
2024-03-29T15:29:03.280Z,67.5
2024-03-29T15:30:03.407Z,68.2
2024-03-29T15:31:05.026Z,68.5
2024-03-29T15:32:01.904Z,68.2
2024-03-29T15:33:03.699Z,68.3
2024-03-29T15:34:03.796Z,68.3
2024-03-29T15:35:02.250Z,67.9
2024-03-29T15:36:01.333Z,67.9
2024-03-29T15:37:05.080Z,68.1
2024-03-29T15:38:03.167Z,68.1
2024-03-29T15:39:01.653Z,68.6
2024-03-29T15:40:03.403Z,69.7
2024-03-29T15:41:03.507Z,70.2
2024-03-29T15:42:01.971Z,69.6
2024-03-29T15:43:02.105Z,69.1
2024-03-29T15:44:02.169Z,68.3
2024-03-29T15:45:01.286Z,69
2024-03-29T15:46:03.019Z,70.1
2024-03-29T15:47:01.504Z,69.7
2024-03-29T15:48:03.232Z,70.1
2024-03-29T15:49:01.687Z,69.6
2024-03-29T15:50:03.458Z,69.5
2024-03-29T15:51:03.553Z,69.3
2024-03-29T15:52:02.020Z,69.2
2024-03-29T15:53:02.124Z,69.6
2024-03-29T15:54:02.230Z,69.3
2024-03-29T15:55:02.964Z,69.3
2024-03-29T15:56:01.408Z,69.6
2024-03-29T15:57:01.580Z,69.7
2024-03-29T15:58:03.271Z,69.7
2024-03-29T15:59:03.368Z,69.4
2024-03-29T16:00:03.492Z,70
2024-03-29T16:01:01.941Z,70.9
2024-03-29T16:02:02.040Z,71
2024-03-29T16:03:03.824Z,70.5
2024-03-29T16:04:02.252Z,70.1
2024-03-29T16:05:02.981Z,71.1
2024-03-29T16:06:03.078Z,70.6
2024-03-29T16:07:01.567Z,70.6
2024-03-29T16:08:01.653Z,70.8
2024-03-29T16:09:01.783Z,71.4
2024-03-29T16:10:01.883Z,70.8
2024-03-29T16:11:01.990Z,71.1
2024-03-29T16:12:02.145Z,71.1
2024-03-29T16:13:03.934Z,71.1
2024-03-29T16:14:01.320Z,71.6
2024-03-29T16:15:03.021Z,71.7
2024-03-29T16:16:01.553Z,71
2024-03-29T16:17:03.283Z,70.8
2024-03-29T16:18:01.756Z,71.1
2024-03-29T16:19:01.822Z,71.2
2024-03-29T16:20:01.976Z,71.6
2024-03-29T16:21:02.003Z,71.4
2024-03-29T16:22:03.756Z,71
2024-03-29T16:23:02.209Z,71
2024-03-29T16:24:01.305Z,71.1
2024-03-29T16:25:03.067Z,71.3
2024-03-29T16:26:01.546Z,71.8
2024-03-29T16:27:03.245Z,71.4
2024-03-29T16:28:01.722Z,71.6
2024-03-29T16:29:01.794Z,71.2
2024-03-29T16:30:03.598Z,70.5
2024-03-29T16:31:02.020Z,70.4
2024-03-29T16:32:02.136Z,71.3
2024-03-29T16:33:02.223Z,71
2024-03-29T16:34:01.363Z,71
2024-03-29T16:35:03.237Z,71.6
2024-03-29T16:36:01.583Z,71.6
2024-03-29T16:37:03.278Z,71.9
2024-03-29T16:38:03.415Z,71.9
2024-03-29T16:39:01.885Z,72.2
2024-03-29T16:40:01.966Z,71.8
2024-03-29T16:41:03.724Z,72
2024-03-29T16:42:02.174Z,72.2
2024-03-29T16:43:01.263Z,72.7
2024-03-29T16:44:03.016Z,72.3
2024-03-29T16:45:03.103Z,71.7
2024-03-29T16:46:03.263Z,72.5
2024-03-29T16:47:01.688Z,72.6
2024-03-29T16:48:01.822Z,72.3
2024-03-29T16:49:01.904Z,72.5
2024-03-29T16:50:03.656Z,72.8
2024-03-29T16:51:02.098Z,72.8
2024-03-29T16:52:02.226Z,72.7
2024-03-29T16:53:02.974Z,72.8
2024-03-29T16:54:03.090Z,72.9
2024-03-29T16:55:01.523Z,72.7
2024-03-29T16:56:01.611Z,72.6
2024-03-29T16:57:01.735Z,73
2024-03-29T16:58:01.819Z,73.4
2024-03-29T16:59:03.596Z,73.4
2024-03-29T17:00:02.039Z,73.5
2024-03-29T17:01:03.784Z,73.7
2024-03-29T17:02:02.939Z,74
2024-03-29T17:03:01.361Z,73.7
2024-03-29T17:04:01.454Z,73.5
2024-03-29T17:05:01.593Z,73.3
2024-03-29T17:06:01.692Z,73.3
2024-03-29T17:07:03.451Z,73.5
2024-03-29T17:08:03.512Z,73.6
2024-03-29T17:09:03.637Z,73.5
2024-03-29T17:10:02.142Z,73.5
2024-03-29T17:11:02.191Z,73.8
2024-03-29T17:12:01.347Z,74
2024-03-29T17:13:01.408Z,74
2024-03-29T17:14:01.489Z,73.5
2024-03-29T17:15:03.237Z,73.8
2024-03-29T17:16:03.380Z,74
2024-03-29T17:17:01.881Z,73.9
2024-03-29T17:18:01.927Z,74.4
2024-03-29T17:19:03.680Z,74.4
2024-03-29T17:20:03.758Z,73.8
2024-03-29T17:21:02.240Z,74.1
2024-03-29T17:22:01.330Z,74.1
2024-03-29T17:23:03.065Z,74.3
2024-03-29T17:24:03.198Z,74.3
2024-03-29T17:25:01.616Z,74.2
2024-03-29T17:26:01.703Z,74
2024-03-29T17:27:01.857Z,74.4
2024-03-29T17:28:01.922Z,74.5
2024-03-29T17:29:03.639Z,74.4
2024-03-29T17:30:02.122Z,74.4
2024-03-29T17:31:04.004Z,74.3
2024-03-29T17:32:11.283Z,74
2024-03-29T17:33:03.138Z,74.5
2024-03-29T17:34:01.550Z,74.5
2024-03-29T17:35:03.317Z,74.1
2024-03-29T17:36:03.388Z,74.1
2024-03-29T17:37:01.898Z,74.5
2024-03-29T17:38:02.009Z,74.7
2024-03-29T17:39:02.088Z,75
2024-03-29T17:40:02.160Z,75
2024-03-29T17:41:02.921Z,75.3
2024-03-29T17:42:01.439Z,75.3
2024-03-29T17:43:01.490Z,75.5
2024-03-29T17:44:01.582Z,75.3
2024-03-29T17:45:01.739Z,74.8
2024-03-29T17:46:01.818Z,74.9
2024-03-29T17:47:03.614Z,74.9
2024-03-29T17:48:02.037Z,75.1
2024-03-29T17:49:03.789Z,75.1
2024-03-29T17:50:03.867Z,75.2
2024-03-29T17:51:01.343Z,75.2
2024-03-29T17:52:01.424Z,75.3
2024-03-29T17:53:01.598Z,75.3
2024-03-29T17:54:03.291Z,75.3
2024-03-29T17:55:03.408Z,75.1
2024-03-29T17:56:03.498Z,75
2024-03-29T17:57:03.634Z,75.3
2024-03-29T17:58:02.103Z,75.4
2024-03-29T17:59:02.203Z,75.6
2024-03-29T18:00:01.419Z,75.8
2024-03-29T18:01:01.403Z,75.9
2024-03-29T18:02:03.154Z,75.7
2024-03-29T18:03:01.611Z,75.7
2024-03-29T18:04:01.686Z,75.7
2024-03-29T18:05:03.429Z,75.5
2024-03-29T18:06:03.549Z,75.8
2024-03-29T18:07:02.032Z,75.5
2024-03-29T18:08:02.118Z,75.8
2024-03-29T18:09:02.179Z,75.7
2024-03-29T18:10:02.947Z,75.5
2024-03-29T18:11:01.429Z,75.8
2024-03-29T18:12:01.527Z,75.8
2024-03-29T18:13:01.643Z,76
2024-03-29T18:14:01.760Z,75.6
2024-03-29T18:15:01.847Z,75.7
2024-03-29T18:16:01.935Z,75.8
2024-03-29T18:17:03.709Z,75.6
2024-03-29T18:18:03.818Z,75.8
2024-03-29T18:19:01.279Z,75.8
2024-03-29T18:20:01.416Z,75.6
2024-03-29T18:21:01.449Z,75.7
2024-03-29T18:22:01.543Z,75.9
2024-03-29T18:23:03.271Z,75.9
2024-03-29T18:24:03.448Z,75.9
2024-03-29T18:25:03.590Z,75.9
2024-03-29T18:26:03.639Z,76
2024-03-29T18:27:02.127Z,76.1
2024-03-29T18:28:02.229Z,76.3
2024-03-29T18:29:04.740Z,76.4
2024-03-29T18:30:01.419Z,76.4
2024-03-29T18:31:01.523Z,76.2
2024-03-29T18:32:01.630Z,76.5
2024-03-29T18:33:01.741Z,76.5
2024-03-29T18:34:01.844Z,76.5
2024-03-29T18:35:03.641Z,76.7
2024-03-29T18:36:02.075Z,76.7
2024-03-29T18:37:02.151Z,76.7
2024-03-29T18:38:06.863Z,76.7
2024-03-29T18:39:01.374Z,76.7
2024-03-29T18:40:01.470Z,76.7
2024-03-29T18:41:01.578Z,76.6
2024-03-29T18:42:01.641Z,76.6
2024-03-29T18:43:03.428Z,76.5
2024-03-29T18:44:03.541Z,76.6
2024-03-29T18:45:01.978Z,76.6
2024-03-29T18:46:03.724Z,76.6
2024-03-29T18:47:02.223Z,76.6
2024-03-29T18:48:01.261Z,76.7
2024-03-29T18:49:01.391Z,76.5
2024-03-29T18:50:03.140Z,76.7
2024-03-29T18:51:01.604Z,76.7
2024-03-29T18:52:03.343Z,76.6
2024-03-29T18:53:03.413Z,76.7
2024-03-29T18:54:03.559Z,76.6
2024-03-29T18:55:03.643Z,76.7
2024-03-29T18:56:02.119Z,76.8
2024-03-29T18:57:03.870Z,76.8
2024-03-29T18:58:01.330Z,76.6
2024-03-29T18:59:01.434Z,76.8
2024-03-29T19:00:03.198Z,76.8
2024-03-29T19:01:03.254Z,76.8
2024-03-29T19:02:03.377Z,76.9
2024-03-29T19:03:03.451Z,76.9
2024-03-29T19:04:03.550Z,76.9
2024-03-29T19:05:02.033Z,76.9
2024-03-29T19:06:02.128Z,76.7
2024-03-29T19:07:02.265Z,76.8
2024-03-29T19:08:03.002Z,76.7
2024-03-29T19:09:01.488Z,76.7
2024-03-29T19:10:03.221Z,77
2024-03-29T19:11:03.300Z,77.1
2024-03-29T19:12:01.797Z,77
2024-03-29T19:13:03.560Z,77.1
2024-03-29T19:14:03.642Z,76.9
2024-03-29T19:15:03.720Z,77.1
2024-03-29T19:16:03.828Z,77.1
2024-03-29T19:17:02.868Z,77
2024-03-29T19:18:03.060Z,76.9
2024-03-29T19:19:03.147Z,77
2024-03-29T19:20:03.223Z,77.2
2024-03-29T19:21:01.716Z,77.2
2024-03-29T19:22:03.469Z,77.3
2024-03-29T19:23:01.946Z,77.4
2024-03-29T19:24:02.079Z,77.5
2024-03-29T19:25:02.156Z,77.5
2024-03-29T19:26:02.250Z,77.5
2024-03-29T19:27:02.999Z,77.5
2024-03-29T19:28:03.119Z,77.3
2024-03-29T19:29:01.622Z,77.2
2024-03-29T19:30:01.702Z,77.5
2024-03-29T19:31:01.764Z,77.6
2024-03-29T19:32:01.874Z,77.5
2024-03-29T19:33:01.995Z,77.4
2024-03-29T19:34:03.712Z,77.2
2024-03-29T19:35:03.808Z,76.9
2024-03-29T19:36:01.267Z,77.4
2024-03-29T19:37:03.052Z,77.5
2024-03-29T19:38:01.494Z,77.4
2024-03-29T19:39:02.291Z,77
2024-03-29T19:40:01.733Z,76.8
2024-03-29T19:41:01.826Z,77.1
2024-03-29T19:42:03.533Z,77.5
2024-03-29T19:43:02.003Z,77.3
2024-03-29T19:44:02.160Z,77.2
2024-03-29T19:45:02.247Z,77.5
2024-03-29T19:46:01.332Z,77.7
2024-03-29T19:47:03.079Z,77.9
2024-03-29T19:48:03.191Z,77.9
2024-03-29T19:49:03.272Z,77.9
2024-03-29T19:50:01.799Z,77.8
2024-03-29T19:51:03.497Z,78.1
2024-03-29T19:52:03.664Z,78.1
2024-03-29T19:53:02.098Z,78.2
2024-03-29T19:54:02.152Z,78.3
2024-03-29T19:55:01.284Z,78.1
2024-03-29T19:56:01.346Z,78.1
2024-03-29T19:57:01.490Z,78
2024-03-29T19:58:01.581Z,78.2
2024-03-29T19:59:01.691Z,78.1
2024-03-29T20:00:01.757Z,78.2
2024-03-29T20:01:01.919Z,78.4
2024-03-29T20:02:01.998Z,78.5
2024-03-29T20:03:02.125Z,78.4
2024-03-29T20:04:02.237Z,78
2024-03-29T20:05:01.332Z,78.4
2024-03-29T20:06:01.442Z,78.6
2024-03-29T20:07:01.552Z,78.7
2024-03-29T20:08:03.287Z,78.8
2024-03-29T20:09:03.563Z,78.6
2024-03-29T20:10:03.042Z,78.8
2024-03-29T20:11:01.984Z,79.1
2024-03-29T20:12:03.721Z,79.1
2024-03-29T20:13:03.820Z,78.9
2024-03-29T20:14:01.279Z,78.7
2024-03-29T20:15:01.435Z,78.9
2024-03-29T20:16:01.495Z,78.5
2024-03-29T20:17:03.243Z,78.6
2024-03-29T20:18:03.336Z,79
2024-03-29T20:19:01.820Z,79.2
2024-03-29T20:20:03.578Z,79.2
2024-03-29T20:21:02.031Z,79.4
2024-03-29T20:22:06.044Z,79.4
2024-03-29T20:23:02.232Z,79.6
2024-03-29T20:24:03.020Z,79.6
2024-03-29T20:25:03.099Z,79.9
2024-03-29T20:26:01.557Z,80.2
2024-03-29T20:27:01.651Z,80
2024-03-29T20:28:01.753Z,79.9
2024-03-29T20:29:01.880Z,79.7
2024-03-29T20:30:03.649Z,80.1
2024-03-29T20:31:02.069Z,80.5
2024-03-29T20:32:02.173Z,80.3
2024-03-29T20:33:02.913Z,80.2
2024-03-29T20:34:03.012Z,80.1
2024-03-29T20:35:01.499Z,80
2024-03-29T20:36:01.612Z,80
2024-03-29T20:37:03.346Z,79.7
2024-03-29T20:38:03.432Z,80.5
2024-03-29T20:39:01.905Z,80.7
2024-03-29T20:40:02.042Z,80.6
2024-03-29T20:41:03.772Z,80.7
2024-03-29T20:42:02.234Z,80.5
2024-03-29T20:43:01.327Z,80.4
2024-03-29T20:44:01.428Z,80.3
2024-03-29T20:45:01.529Z,80.6
2024-03-29T20:46:03.284Z,80.7
2024-03-29T20:47:01.756Z,80.7
2024-03-29T20:48:03.533Z,80.5
2024-03-29T20:49:01.927Z,80.5
2024-03-29T20:50:03.697Z,80.6
2024-03-29T20:51:03.836Z,80.7
2024-03-29T20:53:01.341Z,80.5
2024-03-29T20:54:03.055Z,80.9
2024-03-29T20:55:03.233Z,81
2024-03-29T20:56:03.456Z,80.7
2024-03-29T20:57:01.774Z,80.5
2024-03-29T20:58:01.874Z,81
2024-03-29T20:59:03.618Z,81.1
2024-03-29T21:00:02.099Z,81.2
2024-03-29T21:01:03.913Z,81.2
2024-03-29T21:02:01.307Z,81
2024-03-29T21:03:01.409Z,80.9
2024-03-29T21:04:01.610Z,80.7
2024-03-29T21:05:01.623Z,81.1
2024-03-29T21:06:01.709Z,81.4
2024-03-29T21:07:03.465Z,81.6
2024-03-29T21:08:01.932Z,81.4
2024-03-29T21:09:02.031Z,81.1
2024-03-29T21:10:03.823Z,81.3
2024-03-29T21:11:03.875Z,80.9
2024-03-29T21:12:01.369Z,80.9
2024-03-29T21:13:01.457Z,81
2024-03-29T21:14:03.200Z,80.7
2024-03-29T21:15:01.662Z,81
2024-03-29T21:16:03.404Z,81.4
2024-03-29T21:17:01.848Z,81.3
2024-03-29T21:18:01.997Z,81.3
2024-03-29T21:19:03.686Z,81.7
2024-03-29T21:20:03.809Z,81.7
2024-03-29T21:21:01.282Z,81.7
2024-03-29T21:22:03.007Z,81.7
2024-03-29T21:23:01.484Z,81.6
2024-03-29T21:24:03.213Z,81.5
2024-03-29T21:25:01.700Z,81.8
2024-03-29T21:26:01.821Z,81.7
2024-03-29T21:27:03.520Z,81.5
2024-03-29T21:28:02.023Z,81.5
2024-03-29T21:29:02.101Z,81.4
2024-03-29T21:30:03.873Z,81.7
2024-03-29T21:31:01.295Z,82
2024-03-29T21:32:03.064Z,82.1
2024-03-29T21:33:03.174Z,82.1
2024-03-29T21:34:01.622Z,82
2024-03-29T21:35:01.708Z,81.8
2024-03-29T21:36:01.830Z,81.5
2024-03-29T21:37:01.930Z,81.4
2024-03-29T21:38:03.702Z,81.8
2024-03-29T21:39:02.222Z,81.9
2024-03-29T21:40:01.246Z,82.3
2024-03-29T21:41:03.016Z,82.5
2024-03-29T21:42:03.145Z,82.4
2024-03-29T21:43:03.245Z,81.6
2024-03-29T21:44:03.379Z,81.9
2024-03-29T21:45:01.784Z,81.7
2024-03-29T21:46:01.873Z,81.4
2024-03-29T21:47:01.995Z,81.5
2024-03-29T21:48:03.744Z,81.8
2024-03-29T21:49:02.211Z,82
2024-03-29T21:50:02.946Z,82.3
2024-03-29T21:51:01.411Z,82.3
2024-03-29T21:52:01.546Z,82.2
2024-03-29T21:53:03.214Z,82.8
2024-03-29T21:54:01.751Z,82.6
2024-03-29T21:55:01.830Z,82.6
2024-03-29T21:56:01.968Z,82.2
2024-03-29T21:57:03.749Z,82.6
2024-03-29T21:58:04.939Z,82.6
2024-03-29T21:59:02.886Z,82.8
2024-03-29T22:00:03.043Z,82.4
2024-03-29T22:01:03.130Z,82.6
2024-03-29T22:02:01.579Z,82.8
2024-03-29T22:03:01.705Z,82.4
2024-03-29T22:04:03.432Z,82.8
2024-03-29T22:05:03.533Z,82.8
2024-03-29T22:06:01.996Z,82.6
2024-03-29T22:07:03.715Z,82.5
2024-03-29T22:08:03.875Z,82.4
2024-03-29T22:09:01.292Z,82.8
2024-03-29T22:10:03.044Z,83
2024-03-29T22:11:01.522Z,83
2024-03-29T22:12:01.613Z,83.3
2024-03-29T22:13:03.370Z,83.2
2024-03-29T22:14:01.815Z,82.8
2024-03-29T22:15:01.899Z,83
2024-03-29T22:16:02.035Z,82.9
2024-03-29T22:17:02.136Z,82.8
2024-03-29T22:18:03.900Z,82.8
2024-03-29T22:19:01.364Z,83.1
2024-03-29T22:20:01.483Z,83
2024-03-29T22:21:01.564Z,83.2
2024-03-29T22:22:01.694Z,82.9
2024-03-29T22:23:01.797Z,83.1
2024-03-29T22:24:01.899Z,83.2
2024-03-29T22:25:02.003Z,83.4
2024-03-29T22:26:03.751Z,83.4
2024-03-29T22:27:02.203Z,83.2
2024-03-29T22:28:02.936Z,83.4
2024-03-29T22:29:03.049Z,83.6
2024-03-29T22:30:03.213Z,83.3
2024-03-29T22:31:01.632Z,83.3
2024-03-29T22:32:01.720Z,83.1
2024-03-29T22:33:01.875Z,83.3